Time;durP1;ratioP1;P1;durP2;ratioP2;P2;SDS_P1;SDS_P2;PMS_P1;PMS_P2;Temp;Humidity;BMP_temperature;BMP_pressure;BME280_temperature;BME280_humidity;BME280_pressure;Samples;Min_cycle;Max_cycle;Signal;HPM_P1;HPM_P2
2023/02/16 00:00:34;;;;;;;108.20;43.00;;;;;;;2.76;100.00;99770.91;67717;1279;1016430;-62
2023/02/16 00:03:57;;;;;;;105.10;44.40;;;;;;;2.92;100.00;99765.52;67703;1279;1016620;-62
2023/02/16 00:06:59;;;;;;;110.50;43.10;;;;;;;2.86;100.00;99759.55;67725;1279;1016685;-61
2023/02/16 00:10:02;;;;;;;103.50;42.80;;;;;;;2.78;100.00;99759.84;67716;1279;1017852;-61
2023/02/16 00:16:24;;;;;;;97.70;41.20;;;;;;;2.68;100.00;99752.73;67740;1279;1016336;-61
2023/02/16 00:19:27;;;;;;;104.60;42.70;;;;;;;2.66;100.00;99748.08;67736;1279;1016187;-62
2023/02/16 00:22:29;;;;;;;110.60;42.00;;;;;;;2.74;100.00;99748.14;67716;1279;1016431;-61
2023/02/16 00:25:31;;;;;;;106.70;42.50;;;;;;;2.71;100.00;99742.30;67724;1279;1016295;-61
2023/02/16 00:28:34;;;;;;;103.40;41.90;;;;;;;2.57;100.00;99741.30;67761;1279;1016282;-62
2023/02/16 00:31:36;;;;;;;107.70;42.90;;;;;;;2.49;100.00;99738.81;67746;1279;1016612;-61
2023/02/16 00:34:39;;;;;;;111.80;43.70;;;;;;;2.50;100.00;99736.20;67761;1279;1015891;-60
2023/02/16 00:37:41;;;;;;;103.90;41.90;;;;;;;2.49;100.00;99736.08;67730;1279;1018805;-61
2023/02/16 00:40:43;;;;;;;110.40;43.00;;;;;;;2.48;100.00;99730.55;67726;1279;1016945;-59
2023/02/16 00:43:46;;;;;;;113.50;44.80;;;;;;;2.43;100.00;99729.05;67754;1279;1016305;-61
2023/02/16 00:46:48;;;;;;;106.60;43.80;;;;;;;2.35;100.00;99722.59;67769;1279;1016385;-62
2023/02/16 00:49:50;;;;;;;113.50;47.10;;;;;;;2.30;100.00;99726.28;67757;1279;1016233;-61
2023/02/16 00:52:53;;;;;;;105.30;43.50;;;;;;;2.33;100.00;99720.89;67754;1279;1016463;-60
2023/02/16 00:55:55;;;;;;;112.80;46.20;;;;;;;2.27;100.00;99721.14;67731;1279;1016322;-61
2023/02/16 00:58:58;;;;;;;128.20;49.70;;;;;;;2.22;100.00;99718.79;67721;1279;1016309;-60
2023/02/16 01:02:00;;;;;;;132.50;51.00;;;;;;;2.07;100.00;99720.88;67725;1279;1016192;-62
2023/02/16 01:05:03;;;;;;;119.40;45.70;;;;;;;1.98;100.00;99726.16;67790;1279;1016495;-61
2023/02/16 01:11:25;;;;;;;129.20;50.00;;;;;;;2.00;100.00;99722.52;67703;1256;1017213;-62
2023/02/16 01:14:28;;;;;;;114.30;47.50;;;;;;;1.98;100.00;99717.52;67762;1279;1016480;-62
2023/02/16 01:17:30;;;;;;;114.80;45.80;;;;;;;2.04;100.00;99711.27;67794;1279;1017049;-60
2023/02/16 01:20:34;;;;;;;120.80;48.80;;;;;;;2.03;100.00;99706.42;67774;1279;1016455;-61
2023/02/16 01:23:36;;;;;;;108.30;47.00;;;;;;;2.11;100.00;99702.70;67767;1279;1016420;-61
2023/02/16 01:26:39;;;;;;;113.90;43.80;;;;;;;2.13;100.00;99704.59;67774;1279;1015755;-62
2023/02/16 01:29:41;;;;;;;108.00;44.20;;;;;;;2.06;100.00;99705.71;67782;1279;1016260;-62
2023/02/16 01:32:46;;;;;;;103.70;44.10;;;;;;;2.06;100.00;99698.46;67739;1279;1016139;-62
2023/02/16 01:35:48;;;;;;;104.90;43.00;;;;;;;1.99;100.00;99692.51;67716;1279;1016179;-62
2023/02/16 01:38:51;;;;;;;110.50;45.40;;;;;;;1.97;100.00;99684.93;67776;1279;1016475;-61
2023/02/16 01:41:53;;;;;;;108.80;42.30;;;;;;;1.97;100.00;99684.24;67768;1279;1016018;-61
2023/02/16 01:44:56;;;;;;;116.80;48.90;;;;;;;1.94;100.00;99681.70;67714;1279;1016452;-61
2023/02/16 01:47:58;;;;;;;114.80;48.20;;;;;;;1.96;100.00;99674.77;67741;1279;1018818;-61
2023/02/16 01:51:00;;;;;;;109.90;46.00;;;;;;;1.96;100.00;99666.83;67727;1279;1016166;-60
2023/02/16 01:54:03;;;;;;;109.00;43.40;;;;;;;2.01;100.00;99661.59;67749;1279;1016186;-61
2023/02/16 01:57:05;;;;;;;106.40;42.60;;;;;;;1.98;100.00;99664.23;67763;1279;1018315;-62
2023/02/16 02:00:08;;;;;;;106.20;41.70;;;;;;;1.96;100.00;99660.80;67771;1279;1016772;-61
2023/02/16 02:06:26;;;;;;;100.30;40.30;;;;;;;1.89;100.00;99669.33;67650;1279;1018526;-61
2023/02/16 02:09:29;;;;;;;93.90;39.60;;;;;;;1.91;100.00;99667.77;67747;1279;1016327;-61
2023/02/16 02:12:31;;;;;;;101.40;43.50;;;;;;;1.94;100.00;99669.11;67766;1279;1015956;-61
2023/02/16 02:15:34;;;;;;;101.60;40.70;;;;;;;1.93;100.00;99673.77;67803;1279;1016404;-61
2023/02/16 02:18:36;;;;;;;94.00;41.00;;;;;;;1.83;100.00;99673.39;67744;1279;1016473;-61
2023/02/16 02:24:59;;;;;;;100.20;40.60;;;;;;;1.69;100.00;99675.77;67726;1279;1016826;-61
2023/02/16 02:28:01;;;;;;;94.30;38.70;;;;;;;1.69;100.00;99673.02;67736;1279;1016751;-62
2023/02/16 02:31:04;;;;;;;97.30;41.30;;;;;;;1.53;100.00;99667.67;67793;1279;1016527;-62
2023/02/16 02:34:06;;;;;;;99.50;40.20;;;;;;;1.41;100.00;99663.66;67734;1279;1016439;-61
2023/02/16 02:37:08;;;;;;;93.50;39.30;;;;;;;1.39;100.00;99663.52;67681;1279;1016459;-62
2023/02/16 02:40:11;;;;;;;99.00;39.60;;;;;;;1.36;100.00;99661.81;67708;1280;1017288;-61
2023/02/16 02:43:13;;;;;;;100.40;39.10;;;;;;;1.28;100.00;99657.77;67486;1279;1390663;-61
2023/02/16 02:46:16;;;;;;;99.10;39.10;;;;;;;1.16;100.00;99658.04;67742;1279;1016405;-61
2023/02/16 02:49:18;;;;;;;96.10;38.60;;;;;;;1.09;100.00;99658.80;67780;1279;1016437;-62
2023/02/16 02:52:21;;;;;;;99.20;40.40;;;;;;;1.11;100.00;99660.17;67722;1279;1016484;-61
2023/02/16 03:02:03;;;;;;;95.60;39.50;;;;;;;1.15;100.00;99646.52;67745;1279;1016366;-62
2023/02/16 03:05:06;;;;;;;93.60;40.00;;;;;;;1.08;100.00;99650.19;67804;1279;1016469;-61
2023/02/16 03:08:13;;;;;;;94.70;38.40;;;;;;;1.03;100.00;99650.76;67736;1279;1016846;-62
2023/02/16 03:14:35;;;;;;;96.20;39.30;;;;;;;1.03;100.00;99644.39;67747;1279;1016263;-60
2023/02/16 03:30:58;;;;;;;100.40;40.30;;;;;;;1.12;100.00;99628.79;67762;1279;1018911;-60
2023/02/16 03:34:03;;;;;;;89.70;36.50;;;;;;;1.05;100.00;99628.00;67737;1279;1017837;-60
2023/02/16 03:37:06;;;;;;;93.00;38.30;;;;;;;1.00;100.00;99627.18;67763;1279;1016143;-60
2023/02/16 03:43:28;;;;;;;98.40;39.00;;;;;;;0.87;100.00;99615.59;67788;1279;1018378;-61
2023/02/16 03:46:31;;;;;;;98.30;39.80;;;;;;;0.92;100.00;99611.41;67715;1279;1016295;-61
2023/02/16 03:49:33;;;;;;;99.00;38.00;;;;;;;0.89;100.00;99609.38;67732;1279;1016136;-61
2023/02/16 03:52:35;;;;;;;97.50;41.40;;;;;;;0.75;100.00;99605.02;67753;1279;1016449;-61
2023/02/16 03:55:38;;;;;;;102.30;40.20;;;;;;;0.64;100.00;99605.11;67772;1279;1016906;-61
2023/02/16 03:58:40;;;;;;;104.90;39.30;;;;;;;0.55;100.00;99607.08;67752;1263;1016466;-61
2023/02/16 04:01:43;;;;;;;100.40;41.10;;;;;;;0.51;100.00;99603.49;67723;1279;1016438;-61
2023/02/16 04:04:45;;;;;;;93.80;39.20;;;;;;;0.44;100.00;99599.23;67734;1279;1016787;-59
2023/02/16 04:07:47;;;;;;;113.50;46.40;;;;;;;0.49;100.00;99597.66;67759;1279;1016439;-60
2023/02/16 04:10:50;;;;;;;107.60;43.50;;;;;;;0.59;100.00;99602.21;67726;1279;1016449;-61
2023/02/16 04:13:53;;;;;;;110.70;43.90;;;;;;;0.68;100.00;99601.30;67804;1279;1016594;-59
2023/02/16 04:16:55;;;;;;;;;;;;;;;0.81;100.00;99604.27;67770;1279;1016481;-60
2023/02/16 04:19:58;;;;;;;91.10;37.40;;;;;;;0.87;100.00;99606.46;67777;1279;1016419;-61
2023/02/16 04:23:00;;;;;;;100.80;37.30;;;;;;;0.85;100.00;99607.35;67771;1279;1016529;-60
2023/02/16 04:26:03;;;;;;;96.00;37.70;;;;;;;0.93;100.00;99601.77;67764;1279;1016523;-60
2023/02/16 04:29:05;;;;;;;91.90;38.10;;;;;;;1.06;100.00;99599.73;67782;1279;1016344;-59
2023/02/16 04:32:07;;;;;;;92.50;37.30;;;;;;;1.13;100.00;99592.44;67715;1279;1017046;-60
2023/02/16 04:35:10;;;;;;;95.50;38.80;;;;;;;1.15;100.00;99588.98;67737;1279;1016330;-60
2023/02/16 04:38:12;;;;;;;95.80;40.80;;;;;;;1.21;100.00;99591.48;67764;1279;1016494;-60
2023/02/16 04:41:15;;;;;;;105.30;40.50;;;;;;;1.26;100.00;99590.76;67752;1279;1016513;-61
2023/02/16 04:44:17;;;;;;;103.00;39.70;;;;;;;1.21;100.00;99590.63;67747;1279;1017074;-59
2023/02/16 04:47:20;;;;;;;101.20;38.00;;;;;;;1.17;100.00;99586.37;67725;1279;1015780;-60
2023/02/16 04:50:23;;;;;;;89.80;36.40;;;;;;;1.23;100.00;99586.98;67760;1279;1016086;-61
2023/02/16 04:53:25;;;;;;;81.80;33.90;;;;;;;1.35;100.00;99584.27;67750;1279;1015833;-61
2023/02/16 04:56:28;;;;;;;76.40;32.80;;;;;;;1.45;100.00;99578.47;67745;1279;1016884;-60
2023/02/16 04:59:30;;;;;;;82.60;32.60;;;;;;;1.57;100.00;99576.95;67824;1279;1016359;-60
2023/02/16 05:02:33;;;;;;;80.80;34.50;;;;;;;1.60;100.00;99573.83;67765;1279;1015976;-61
2023/02/16 05:05:35;;;;;;;78.20;32.20;;;;;;;1.69;100.00;99570.77;67774;1279;1016114;-60
2023/02/16 05:08:38;;;;;;;85.60;34.70;;;;;;;1.76;100.00;99571.55;67737;1279;1016504;-61
2023/02/16 05:15:00;;;;;;;77.20;32.70;;;;;;;1.88;100.00;99570.52;67779;1279;1016287;-61
2023/02/16 05:18:02;;;;;;;81.70;33.00;;;;;;;1.88;100.00;99574.13;67764;1279;1016501;-61
2023/02/16 05:24:26;;;;;;;85.10;35.20;;;;;;;1.88;100.00;99579.15;67722;1279;1016133;-61
2023/02/16 05:27:28;;;;;;;87.00;34.50;;;;;;;1.92;100.00;99578.58;67743;1279;1016392;-61
2023/02/16 05:30:30;;;;;;;86.10;36.20;;;;;;;1.90;100.00;99576.36;67771;1279;1016321;-62
2023/02/16 05:33:33;;;;;;;85.50;33.90;;;;;;;1.92;100.00;99578.06;67751;1279;1016430;-62
2023/02/16 05:36:35;;;;;;;86.00;34.20;;;;;;;1.96;100.00;99576.96;67733;1279;1019581;-61
2023/02/16 05:39:38;;;;;;;92.40;36.40;;;;;;;2.00;100.00;99579.84;67704;1279;1016111;-61
2023/02/16 05:42:40;;;;;;;116.20;44.90;;;;;;;2.00;100.00;99583.65;67742;1279;1018554;-61
2023/02/16 05:45:42;;;;;;;138.20;63.10;;;;;;;1.99;100.00;99588.14;67790;1279;1016781;-62
2023/02/16 05:48:45;;;;;;;118.10;58.80;;;;;;;2.01;100.00;99590.17;67761;1279;1016968;-61
2023/02/16 05:51:47;;;;;;;96.00;44.00;;;;;;;1.99;100.00;99589.34;67765;1279;1016516;-61
2023/02/16 05:54:51;;;;;;;93.50;41.50;;;;;;;1.97;100.00;99587.83;67717;1279;1015984;-61
2023/02/16 05:57:53;;;;;;;89.90;39.30;;;;;;;1.95;100.00;99590.45;67767;1279;1016350;-62
2023/02/16 06:00:57;;;;;;;96.10;42.20;;;;;;;1.98;100.00;99590.04;67717;1279;1016436;-61
2023/02/16 06:03:59;;;;;;;92.40;37.50;;;;;;;2.04;100.00;99592.55;67771;1279;1015938;-62
2023/02/16 06:07:02;;;;;;;83.80;35.10;;;;;;;2.05;100.00;99587.70;67727;1279;1016525;-61
2023/02/16 06:10:04;;;;;;;77.80;33.50;;;;;;;2.01;100.00;99586.38;67746;1279;1016544;-61
2023/02/16 06:13:06;;;;;;;82.20;34.80;;;;;;;2.13;100.00;99589.30;67749;1279;1016951;-62
2023/02/16 06:16:09;;;;;;;87.10;35.00;;;;;;;2.29;100.00;99593.41;67768;1279;1017733;-62
2023/02/16 06:19:11;;;;;;;82.70;36.80;;;;;;;2.36;100.00;99593.29;67780;1279;1016234;-61
2023/02/16 06:22:14;;;;;;;85.50;35.70;;;;;;;2.48;100.00;99597.25;67732;1279;1016125;-61
2023/02/16 06:25:19;;;;;;;80.00;35.00;;;;;;;2.58;100.00;99601.41;67695;1279;1016787;-61
2023/02/16 06:28:21;;;;;;;82.80;36.10;;;;;;;2.71;100.00;99600.00;67764;1279;1016336;-61
2023/02/16 06:31:23;;;;;;;89.40;36.40;;;;;;;2.78;100.00;99597.30;67760;1279;1016440;-61
2023/02/16 06:34:26;;;;;;;85.70;35.40;;;;;;;2.77;100.00;99597.48;67773;1279;1016499;-61
2023/02/16 06:37:28;;;;;;;85.10;36.40;;;;;;;2.85;100.00;99597.34;67726;1279;1016403;-62
2023/02/16 06:40:31;;;;;;;93.40;37.90;;;;;;;2.87;100.00;99600.08;67774;1279;1016394;-61
2023/02/16 06:43:33;;;;;;;85.60;36.00;;;;;;;2.95;100.00;99602.72;67775;1280;1016369;-61
2023/02/16 06:46:36;;;;;;;91.70;38.50;;;;;;;3.12;100.00;99601.88;67762;1279;1018176;-61
2023/02/16 06:49:38;;;;;;;94.80;40.70;;;;;;;3.28;100.00;99606.77;67702;1279;1016384;-62
2023/02/16 06:52:41;;;;;;;88.30;37.20;;;;;;;3.34;100.00;99612.70;67731;1279;1016507;-62
2023/02/16 06:55:43;;;;;;;92.20;38.70;;;;;;;3.43;100.00;99612.71;67765;1279;1016734;-61
2023/02/16 06:58:48;;;;;;;86.40;35.90;;;;;;;3.61;100.00;99610.30;67793;1279;1016375;-61
2023/02/16 07:01:51;;;;;;;87.60;37.40;;;;;;;3.79;100.00;99607.34;67746;1279;1016394;-61
2023/02/16 07:04:53;;;;;;;95.40;40.00;;;;;;;3.89;100.00;99605.40;67793;1279;1016440;-61
2023/02/16 07:07:56;;;;;;;86.50;37.60;;;;;;;3.88;100.00;99605.77;67751;1279;1018996;-61
2023/02/16 07:10:58;;;;;;;87.70;36.60;;;;;;;3.84;100.00;99602.05;67736;1279;1016430;-61
2023/02/16 07:14:00;;;;;;;80.50;34.50;;;;;;;3.97;100.00;99604.55;67706;1279;1016813;-61
2023/02/16 07:17:03;;;;;;;81.50;35.70;;;;;;;4.05;100.00;99600.39;67799;1279;1017173;-61
2023/02/16 07:20:06;;;;;;;;;;;;;;;4.10;100.00;99597.15;67761;1279;1018863;-61
2023/02/16 07:23:09;;;;;;;83.60;35.90;;;;;;;4.21;100.00;99597.95;67751;1279;1016431;-61
2023/02/16 07:26:11;;;;;;;76.60;34.20;;;;;;;4.26;100.00;99599.39;67771;1279;1016129;-61
2023/02/16 07:29:13;;;;;;;77.90;34.50;;;;;;;4.34;100.00;99599.56;67755;1279;1016393;-62
2023/02/16 07:32:16;;;;;;;86.20;38.60;;;;;;;4.37;100.00;99597.23;67742;1279;1016433;-61
2023/02/16 07:35:18;;;;;;;86.00;37.90;;;;;;;4.44;100.00;99597.59;67701;1279;1016496;-61
2023/02/16 07:38:20;;;;;;;81.80;35.60;;;;;;;4.48;100.00;99599.60;67737;1279;1016488;-61
2023/02/16 07:41:23;;;;;;;83.30;37.40;;;;;;;4.58;100.00;99599.86;67731;1279;1016465;-61
2023/02/16 07:44:25;;;;;;;81.60;36.40;;;;;;;4.64;100.00;99594.55;67736;1279;1016427;-61
2023/02/16 07:47:28;;;;;;;82.50;35.00;;;;;;;4.80;100.00;99595.20;67732;1279;1016706;-61
2023/02/16 07:50:30;;;;;;;77.50;32.60;;;;;;;4.90;100.00;99593.54;67771;1279;1018607;-61
2023/02/16 07:53:32;;;;;;;85.90;36.20;;;;;;;4.94;100.00;99589.45;67756;1279;1016384;-61
2023/02/16 07:56:35;;;;;;;82.30;34.80;;;;;;;5.09;100.00;99589.05;67749;1279;1015881;-61
2023/02/16 07:59:37;;;;;;;85.40;35.80;;;;;;;5.21;100.00;99588.23;67741;1279;1016495;-61
2023/02/16 08:02:40;;;;;;;76.10;35.00;;;;;;;5.37;100.00;99586.05;67780;1279;1015928;-61
2023/02/16 08:05:42;;;;;;;73.90;31.00;;;;;;;5.53;100.00;99579.37;67815;1279;1016467;-61
2023/02/16 08:08:45;;;;;;;80.00;34.60;;;;;;;5.70;100.00;99581.66;67767;1279;1015961;-61
2023/02/16 08:11:47;;;;;;;78.80;34.80;;;;;;;5.97;100.00;99582.13;67729;1279;1016398;-61
2023/02/16 08:14:50;;;;;;;79.90;34.20;;;;;;;6.19;100.00;99576.94;67754;1279;1017367;-61
2023/02/16 08:17:52;;;;;;;73.80;33.10;;;;;;;6.35;100.00;99573.64;67816;1279;1016794;-61
2023/02/16 08:20:56;;;;;;;75.10;33.40;;;;;;;6.30;100.00;99572.96;67764;1279;1016453;-61
2023/02/16 08:23:58;;;;;;;80.20;36.10;;;;;;;6.45;100.00;99574.57;67769;1279;1016960;-61
2023/02/16 08:27:01;;;;;;;82.90;35.80;;;;;;;6.64;100.00;99574.64;67755;1279;1016175;-61
2023/02/16 08:30:03;;;;;;;73.80;33.60;;;;;;;6.82;100.00;99575.61;67754;1279;1016362;-61
2023/02/16 08:33:06;;;;;;;;;;;;;;;6.96;100.00;99575.84;67775;1279;1016343;-61
2023/02/16 08:36:09;;;;;;;77.10;34.80;;;;;;;7.17;100.00;99577.02;67771;1279;1016736;-61
2023/02/16 08:39:11;;;;;;;68.10;31.50;;;;;;;7.29;100.00;99581.81;67736;1279;1016844;-60
2023/02/16 08:42:14;;;;;;;63.60;29.50;;;;;;;7.20;100.00;99587.04;67720;1279;1016445;-61
2023/02/16 08:45:17;;;;;;;64.10;30.00;;;;;;;7.11;100.00;99580.37;67764;1279;1016380;-61
2023/02/16 08:48:20;;;;;;;69.70;30.80;;;;;;;7.10;100.00;99582.84;67813;1279;1018286;-61
2023/02/16 08:51:24;;;;;;;65.30;30.30;;;;;;;7.09;100.00;99574.85;67728;1279;1016298;-61
2023/02/16 08:54:28;;;;;;;65.70;29.60;;;;;;;7.21;100.00;99582.12;67725;1279;1016385;-61
2023/02/16 08:57:31;;;;;;;66.60;29.90;;;;;;;7.36;100.00;99582.98;67801;1279;1016480;-61
2023/02/16 09:00:37;;;;;;;63.90;28.60;;;;;;;7.36;100.00;99584.88;67774;1279;1016255;-60
2023/02/16 09:03:41;;;;;;;67.40;30.90;;;;;;;7.47;100.00;99572.69;67759;1279;1016513;-61
2023/02/16 09:06:44;;;;;;;66.30;30.90;;;;;;;7.72;100.00;99576.29;67714;1279;1016445;-61
2023/02/16 09:09:46;;;;;;;63.00;28.70;;;;;;;7.70;100.00;99572.00;67723;1279;1016809;-61
2023/02/16 09:12:49;;;;;;;69.30;31.40;;;;;;;7.77;100.00;99577.68;67773;1279;1016555;-61
2023/02/16 09:15:52;;;;;;;66.50;30.00;;;;;;;8.05;100.00;99578.52;67741;1279;1016626;-61
2023/02/16 09:18:54;;;;;;;71.00;31.70;;;;;;;8.22;100.00;99583.61;67727;1279;1016444;-61
2023/02/16 09:21:57;;;;;;;69.20;32.10;;;;;;;8.30;100.00;99581.03;67767;1279;1016395;-61
2023/02/16 09:24:59;;;;;;;71.20;30.60;;;;;;;8.16;100.00;99576.86;67772;1279;1016385;-61
2023/02/16 09:28:02;;;;;;;66.20;31.30;;;;;;;8.31;100.00;99580.30;67726;1279;1016563;-61
2023/02/16 09:31:04;;;;;;;61.50;28.30;;;;;;;8.34;100.00;99588.03;67705;1279;1016432;-61
2023/02/16 09:34:07;;;;;;;66.00;29.50;;;;;;;8.34;100.00;99586.46;67742;1279;1016476;-61
2023/02/16 09:37:10;;;;;;;63.70;29.50;;;;;;;8.43;100.00;99581.23;67776;1279;1016277;-61
2023/02/16 09:40:13;;;;;;;63.60;29.70;;;;;;;8.69;100.00;99588.55;67749;1279;1016738;-61
2023/02/16 09:43:15;;;;;;;60.70;28.00;;;;;;;8.91;100.00;99583.32;67757;1279;1016305;-61
2023/02/16 09:46:18;;;;;;;59.80;27.90;;;;;;;8.89;100.00;99580.09;67717;1279;1015989;-61
2023/02/16 09:49:21;;;;;;;58.60;27.00;;;;;;;8.84;100.00;99582.02;67731;1279;1016348;-61
2023/02/16 09:52:25;;;;;;;58.60;27.80;;;;;;;8.91;100.00;99583.11;67778;1279;1016479;-61
2023/02/16 09:55:29;;;;;;;53.90;24.40;;;;;;;9.02;100.00;99585.61;67742;1279;1016464;-61
2023/02/16 09:58:31;;;;;;;58.00;25.20;;;;;;;9.05;99.27;99582.02;67781;1279;1016912;-60
2023/02/16 10:01:34;;;;;;;54.50;25.30;;;;;;;9.02;99.17;99577.97;67786;1279;1016492;-60
2023/02/16 10:04:37;;;;;;;54.30;23.50;;;;;;;9.18;99.57;99580.59;67714;1279;1015854;-61
2023/02/16 10:07:40;;;;;;;54.40;24.30;;;;;;;9.35;99.45;99574.78;67727;1279;1016413;-61
2023/02/16 10:10:42;;;;;;;52.70;24.90;;;;;;;9.58;96.58;99569.23;67752;1279;1016542;-61
2023/02/16 10:13:46;;;;;;;53.20;24.80;;;;;;;9.87;96.54;99558.31;67717;1279;1016511;-61
2023/02/16 10:16:48;;;;;;;50.80;22.40;;;;;;;9.95;95.86;99551.31;67783;1279;1016404;-61
2023/02/16 10:19:50;;;;;;;56.60;24.10;;;;;;;9.63;96.32;99557.98;67720;1279;1016459;-60
2023/02/16 10:22:53;;;;;;;49.50;22.60;;;;;;;9.72;98.41;99560.05;67736;1279;1019835;-61
2023/02/16 10:25:56;;;;;;;50.00;21.80;;;;;;;9.73;94.58;99572.08;67695;1279;1016204;-61
2023/02/16 10:28:59;;;;;;;49.90;23.00;;;;;;;9.67;93.45;99570.41;67770;1279;1016354;-61
2023/02/16 10:32:01;;;;;;;49.20;22.00;;;;;;;9.54;94.76;99567.15;67717;1279;1016205;-61
2023/02/16 10:35:05;;;;;;;51.10;23.10;;;;;;;9.67;94.05;99557.14;67777;1279;1016466;-61
2023/02/16 10:38:07;;;;;;;48.10;21.90;;;;;;;9.78;95.09;99549.30;67771;1279;1016983;-61
2023/02/16 10:41:09;;;;;;;47.40;20.60;;;;;;;9.83;93.27;99546.80;67767;1279;1015927;-61
2023/02/16 10:44:12;;;;;;;50.50;22.70;;;;;;;10.00;95.41;99533.79;67722;1279;1016732;-62
2023/02/16 10:47:15;;;;;;;50.00;23.10;;;;;;;10.27;96.48;99527.97;67757;1279;1016473;-61
2023/02/16 10:50:18;;;;;;;48.10;21.50;;;;;;;10.36;94.41;99524.56;67701;1279;1016490;-61
2023/02/16 10:53:20;;;;;;;46.90;21.40;;;;;;;10.45;94.87;99519.09;67722;1279;1016495;-61
2023/02/16 10:56:23;;;;;;;46.60;20.60;;;;;;;10.65;93.61;99511.41;67756;1279;1016420;-61
2023/02/16 10:59:25;;;;;;;43.60;19.50;;;;;;;10.82;93.17;99517.92;67760;1279;1016263;-61
2023/02/16 11:02:28;;;;;;;44.50;19.70;;;;;;;10.87;92.86;99517.33;67711;1279;1016470;-61
2023/02/16 11:05:30;;;;;;;47.20;20.20;;;;;;;10.95;91.16;99516.05;67698;1279;1018200;-62
2023/02/16 11:08:33;;;;;;;43.30;19.00;;;;;;;11.02;91.85;99510.09;67750;1279;1016294;-62
2023/02/16 11:11:35;;;;;;;43.80;20.30;;;;;;;10.96;89.55;99504.77;67734;1279;1016264;-61
2023/02/16 11:14:38;;;;;;;44.20;19.10;;;;;;;10.82;87.90;99504.45;67729;1279;1018081;-61
2023/02/16 11:17:40;;;;;;;46.70;20.80;;;;;;;10.62;85.01;99498.64;67754;1279;1016406;-61
2023/02/16 11:20:43;;;;;;;41.90;19.50;;;;;;;10.76;85.55;99495.45;67765;1279;1016403;-61
2023/02/16 11:23:46;;;;;;;45.30;19.80;;;;;;;10.95;85.81;99493.84;67716;1279;1016167;-61
2023/02/16 11:26:49;;;;;;;44.80;19.40;;;;;;;11.23;86.58;99486.41;67781;1279;1016251;-61
2023/02/16 11:29:51;;;;;;;44.10;19.40;;;;;;;11.21;81.75;99489.47;67757;1279;1016477;-61
2023/02/16 11:32:53;;;;;;;42.20;19.40;;;;;;;11.22;84.33;99480.13;67780;1279;1016345;-61
2023/02/16 11:35:56;;;;;;;45.00;19.70;;;;;;;11.33;82.85;99474.84;67720;1279;1016034;-61
2023/02/16 11:38:58;;;;;;;48.00;20.70;;;;;;;11.40;84.11;99473.23;67714;1279;1016205;-61
2023/02/16 11:42:01;;;;;;;44.20;19.40;;;;;;;11.60;82.85;99475.33;67735;1279;1016356;-61
2023/02/16 11:45:03;;;;;;;41.80;17.90;;;;;;;11.82;82.80;99478.15;67730;1279;1016415;-61
2023/02/16 11:48:06;;;;;;;43.80;18.60;;;;;;;11.71;78.68;99482.23;67753;1279;1016312;-61
2023/02/16 11:51:08;;;;;;;40.40;17.30;;;;;;;11.58;78.08;99485.08;67717;1279;1016467;-61
2023/02/16 11:54:10;;;;;;;43.00;18.00;;;;;;;11.43;78.44;99480.81;67715;1279;1016174;-61
2023/02/16 11:57:14;;;;;;;40.20;18.30;;;;;;;11.45;78.20;99483.48;67765;1279;1017569;-61
2023/02/16 12:00:17;;;;;;;44.20;18.50;;;;;;;11.53;77.97;99469.93;67698;1279;1015979;-62
2023/02/16 12:03:20;;;;;;;40.10;17.50;;;;;;;11.66;79.01;99467.78;67728;1279;1016200;-61
2023/02/16 12:06:24;;;;;;;41.80;18.40;;;;;;;11.74;79.48;99461.77;67729;1279;1015861;-61
2023/02/16 12:09:26;;;;;;;41.70;19.30;;;;;;;11.73;79.84;99465.67;67685;1279;1016823;-61
2023/02/16 12:12:29;;;;;;;43.20;19.60;;;;;;;11.76;79.42;99460.94;67740;1279;1016474;-61
2023/02/16 12:15:32;;;;;;;39.60;18.00;;;;;;;11.90;81.06;99457.87;67726;1279;1019246;-61
2023/02/16 12:18:35;;;;;;;41.00;17.10;;;;;;;11.96;79.50;99460.92;67735;1279;1017954;-61
2023/02/16 12:21:40;;;;;;;40.70;17.50;;;;;;;11.82;77.76;99461.84;67725;1279;1016277;-61
2023/02/16 12:24:42;;;;;;;46.80;19.20;;;;;;;11.77;79.48;99455.79;67728;1279;1016455;-61
2023/02/16 12:27:45;;;;;;;42.40;17.90;;;;;;;11.90;79.92;99455.61;67785;1279;1016456;-61
2023/02/16 12:30:48;;;;;;;42.60;19.70;;;;;;;12.00;79.39;99444.21;67757;1279;1016956;-61
2023/02/16 12:33:50;;;;;;;44.00;19.90;;;;;;;12.09;79.48;99444.25;67746;1279;1016380;-62
2023/02/16 12:36:53;;;;;;;42.00;18.70;;;;;;;12.05;79.43;99445.32;67747;1279;1016438;-62
2023/02/16 12:39:55;;;;;;;;;;;;;;;11.94;79.15;99443.29;67803;1279;1016487;-62
2023/02/16 12:42:58;;;;;;;43.10;19.70;;;;;;;11.97;79.23;99436.85;67800;1279;1018851;-61
2023/02/16 12:46:00;;;;;;;44.60;20.20;;;;;;;12.05;79.18;99442.71;67752;1279;1016325;-61
2023/02/16 12:49:03;;;;;;;42.30;19.00;;;;;;;12.27;80.30;99430.77;67734;1279;1017590;-62
2023/02/16 12:52:05;;;;;;;45.60;19.20;;;;;;;12.36;79.71;99432.70;67762;1279;1016674;-62
2023/02/16 12:55:08;;;;;;;43.40;19.30;;;;;;;12.38;78.65;99430.10;67756;1279;1016178;-62
2023/02/16 12:58:11;;;;;;;40.80;18.60;;;;;;;12.47;78.48;99432.59;67776;1279;1016604;-61
2023/02/16 13:01:14;;;;;;;43.90;19.30;;;;;;;12.39;77.13;99425.81;67716;1279;1016532;-62
2023/02/16 13:04:17;;;;;;;42.30;19.40;;;;;;;12.35;78.52;99423.98;67761;1279;1018515;-62
2023/02/16 13:07:21;;;;;;;41.90;19.10;;;;;;;12.44;77.25;99419.75;67777;1279;1016692;-61
2023/02/16 13:10:24;;;;;;;44.40;20.10;;;;;;;12.26;76.46;99424.80;67785;1279;1017824;-62
2023/02/16 13:13:27;;;;;;;44.10;19.60;;;;;;;12.15;76.12;99426.70;67714;1279;1016489;-61
2023/02/16 13:16:29;;;;;;;43.40;18.80;;;;;;;12.01;76.63;99432.08;67723;1279;1018096;-62
2023/02/16 13:19:32;;;;;;;40.80;18.50;;;;;;;11.93;75.82;99424.95;67776;1279;1016728;-62
2023/02/16 13:22:34;;;;;;;42.60;19.10;;;;;;;11.96;77.17;99416.56;67825;1279;1017040;-61
2023/02/16 13:25:37;;;;;;;45.60;20.80;;;;;;;12.06;76.32;99416.52;67776;1279;1016374;-62
2023/02/16 13:28:39;;;;;;;44.60;19.60;;;;;;;11.88;77.04;99421.17;67756;1256;1016369;-62
2023/02/16 13:31:42;;;;;;;45.00;19.40;;;;;;;12.02;78.10;99412.02;67777;1279;1016156;-61
2023/02/16 13:34:47;;;;;;;44.30;19.90;;;;;;;12.10;78.36;99409.83;67763;1279;1016149;-61
2023/02/16 13:37:49;;;;;;;41.50;19.00;;;;;;;12.04;77.67;99408.91;67754;1279;1019196;-62
2023/02/16 13:40:52;;;;;;;41.70;18.20;;;;;;;11.88;76.53;99411.23;67764;1279;1016547;-62
2023/02/16 13:43:54;;;;;;;44.50;18.90;;;;;;;11.88;78.11;99404.71;67772;1279;1016377;-62
2023/02/16 13:46:56;;;;;;;42.30;18.50;;;;;;;12.05;78.07;99404.13;67743;1279;1016241;-62
2023/02/16 13:49:59;;;;;;;43.40;19.40;;;;;;;12.06;77.52;99402.51;67743;1279;1016479;-62
2023/02/16 13:53:02;;;;;;;39.80;17.90;;;;;;;11.98;76.22;99402.60;67774;1279;1016476;-62
2023/02/16 13:56:04;;;;;;;43.20;17.60;;;;;;;12.01;75.06;99408.58;67784;1279;1017047;-62
2023/02/16 13:59:06;;;;;;;40.20;16.70;;;;;;;11.95;76.34;99401.90;67759;1279;1015865;-62
2023/02/16 14:02:09;;;;;;;36.40;16.10;;;;;;;11.96;76.65;99398.16;67742;1279;1016193;-61
2023/02/16 14:05:12;;;;;;;38.20;17.10;;;;;;;11.90;75.39;99397.98;67769;1279;1016476;-62
2023/02/16 14:08:15;;;;;;;39.90;17.20;;;;;;;11.74;75.58;99403.94;67741;1279;1016390;-62
2023/02/16 14:11:18;;;;;;;41.30;17.30;;;;;;;11.69;75.40;99400.88;67705;1279;1016498;-62
2023/02/16 14:14:21;;;;;;;41.10;17.90;;;;;;;11.75;76.22;99401.41;67801;1279;1015797;-62
2023/02/16 14:17:23;;;;;;;37.00;16.30;;;;;;;11.94;77.05;99399.34;67752;1279;1016519;-62
2023/02/16 14:20:26;;;;;;;35.90;16.20;;;;;;;12.04;75.85;99400.36;67768;1279;1016301;-62
2023/02/16 14:23:28;;;;;;;40.60;17.90;;;;;;;12.01;77.30;99394.55;67798;1279;1016314;-62
2023/02/16 14:26:31;;;;;;;41.70;16.60;;;;;;;11.91;76.32;99391.78;67778;1279;1016383;-61